Time;durP1;ratioP1;P1;durP2;ratioP2;P2;SDS_P1;SDS_P2;PMS_P1;PMS_P2;Temp;Humidity;BMP_temperature;BMP_pressure;BME280_temperature;BME280_humidity;BME280_pressure;Samples;Min_cycle;Max_cycle;Signal;HPM_P1;HPM_P2
2022/02/18 05:58:27;;;;;;;36.92;6.65;;;7.50;99.90;;;;;;1026175;23;20307;-91
2022/02/18 06:00:52;;;;;;;36.08;7.22;;;7.50;99.90;;;;;;5030999;28;20061;-92
2022/02/18 06:03:18;;;;;;;37.13;5.32;;;7.50;99.90;;;;;;5033131;28;20057;-92
2022/02/18 06:05:45;;;;;;;41.58;6.88;;;7.50;99.90;;;;;;5019306;28;20041;-93
2022/02/18 06:08:11;;;;;;;28.73;6.22;;;7.50;99.90;;;;;;5036458;28;20116;-95
2022/02/18 06:10:39;;;;;;;31.63;5.38;;;7.50;99.90;;;;;;5034298;28;20073;-95
2022/02/18 06:13:15;;;;;;;23.60;5.50;;;7.50;99.90;;;;;;5018402;28;20038;-94
2022/02/18 06:15:41;;;;;;;29.98;5.28;;;7.40;99.90;;;;;;5032794;28;20125;-96
2022/02/18 06:18:07;;;;;;;26.20;4.90;;;7.40;99.90;;;;;;5032390;28;20064;-95
2022/02/18 06:20:35;;;;;;;30.02;5.07;;;7.40;99.90;;;;;;5033601;28;20430;-92
2022/02/18 06:23:02;;;;;;;25.00;4.88;;;7.40;99.90;;;;;;5034844;28;20049;-91
2022/02/18 06:25:29;;;;;;;29.27;4.75;;;7.40;99.90;;;;;;5036444;28;20125;-92
2022/02/18 06:28:06;;;;;;;34.92;5.72;;;7.40;99.90;;;;;;5037642;28;20034;-91
2022/02/18 06:30:37;;;;;;;25.88;5.65;;;7.40;99.90;;;;;;5020066;28;20274;-91
2022/02/18 06:33:18;;;;;;;28.30;5.80;;;7.40;99.90;;;;;;5023481;28;20053;-89
2022/02/18 06:38:11;;;;;;;26.88;4.63;;;7.30;99.90;;;;;;5028844;23;20048;-92
2022/02/18 06:40:37;;;;;;;26.95;4.68;;;7.30;99.90;;;;;;4994718;28;20034;-91
2022/02/18 06:43:04;;;;;;;32.10;5.18;;;7.30;99.90;;;;;;4998292;28;20029;-93
2022/02/18 06:45:30;;;;;;;36.47;5.47;;;7.20;99.90;;;;;;4998188;28;20045;-93
2022/02/18 06:47:57;;;;;;;34.85;5.47;;;7.20;99.90;;;;;;5000637;28;20041;-90
2022/02/18 06:50:22;;;;;;;31.20;5.35;;;7.30;99.90;;;;;;5003235;28;20033;-91
2022/02/18 06:52:48;;;;;;;24.85;5.15;;;7.20;99.90;;;;;;5003106;28;20034;-90
2022/02/18 06:55:15;;;;;;;32.00;5.20;;;7.20;99.90;;;;;;4998401;28;20022;-90
2022/02/18 06:57:45;;;;;;;35.58;5.57;;;7.20;99.90;;;;;;4997949;28;20037;-90
2022/02/18 07:00:14;;;;;;;29.52;4.30;;;7.20;99.90;;;;;;4997515;28;20057;-89
2022/02/18 07:02:40;;;;;;;28.90;4.95;;;7.20;99.90;;;;;;4997106;28;20034;-91
2022/02/18 07:05:12;;;;;;;30.63;5.18;;;7.10;99.90;;;;;;4997562;28;20033;-92
2022/02/18 07:07:38;;;;;;;34.75;5.47;;;7.10;99.90;;;;;;4998172;28;20096;-91
2022/02/18 07:10:05;;;;;;;24.40;4.32;;;7.10;99.90;;;;;;4997838;28;20034;-92
2022/02/18 07:12:31;;;;;;;30.60;5.00;;;7.10;99.90;;;;;;4998238;28;20030;-90
2022/02/18 07:14:57;;;;;;;29.90;5.60;;;7.10;99.90;;;;;;4998508;28;20074;-93
2022/02/18 07:17:24;;;;;;;25.25;5.15;;;7.10;99.90;;;;;;4998261;28;20560;-90
2022/02/18 07:19:51;;;;;;;26.48;4.60;;;7.20;99.90;;;;;;4998722;28;20030;-92
2022/02/18 07:22:17;;;;;;;37.47;6.10;;;7.20;99.90;;;;;;4998152;28;20045;-90
2022/02/18 07:24:44;;;;;;;30.75;5.45;;;7.20;99.90;;;;;;5000432;28;20030;-91
2022/02/18 07:27:10;;;;;;;28.88;5.32;;;7.20;99.90;;;;;;4998748;28;20026;-91
2022/02/18 07:29:36;;;;;;;27.38;6.15;;;7.20;99.90;;;;;;4998491;28;20036;-90
2022/02/18 07:32:01;;;;;;;26.05;5.78;;;7.20;99.90;;;;;;4998671;28;20076;-91
2022/02/18 07:34:27;;;;;;;30.00;6.15;;;7.30;99.90;;;;;;4999391;28;20034;-89
2022/02/18 07:36:53;;;;;;;31.52;6.35;;;7.30;99.90;;;;;;4996605;28;20053;-90
2022/02/18 07:39:18;;;;;;;26.88;6.03;;;7.30;99.90;;;;;;4997474;28;20031;-93
2022/02/18 07:41:44;;;;;;;31.95;7.30;;;7.40;99.90;;;;;;4998542;28;20038;-91
2022/02/18 07:44:10;;;;;;;19.83;4.55;;;7.40;99.90;;;;;;4996908;28;20034;-93
2022/02/18 07:46:35;;;;;;;22.33;5.47;;;7.40;99.90;;;;;;4997855;28;20061;-91
2022/02/18 07:49:03;;;;;;;29.98;7.30;;;7.40;99.90;;;;;;4997849;28;20496;-91
2022/02/18 07:51:28;;;;;;;25.33;5.97;;;7.40;99.90;;;;;;5010097;28;20043;-92
2022/02/18 07:53:54;;;;;;;29.25;7.00;;;7.50;99.90;;;;;;4999499;28;20113;-92
2022/02/18 07:56:20;;;;;;;29.08;6.88;;;7.40;99.90;;;;;;4985086;28;20062;-93
2022/02/18 07:58:47;;;;;;;22.98;5.75;;;7.40;99.90;;;;;;5001917;28;20093;-92
2022/02/18 08:01:17;;;;;;;26.27;6.32;;;7.50;99.90;;;;;;5001831;28;20027;-92
2022/02/18 08:03:44;;;;;;;27.95;7.45;;;7.50;99.90;;;;;;4995435;28;20094;-93
2022/02/18 08:06:10;;;;;;;24.13;6.13;;;7.50;99.90;;;;;;4988706;28;20027;-91
2022/02/18 08:08:38;;;;;;;24.58;6.63;;;7.60;99.90;;;;;;5018135;28;20040;-91
2022/02/18 08:11:04;;;;;;;29.17;7.03;;;7.60;99.90;;;;;;5021101;28;20042;-93
2022/02/18 08:13:30;;;;;;;22.00;6.97;;;7.60;99.90;;;;;;5017552;28;20042;-92
2022/02/18 08:15:57;;;;;;;22.58;6.32;;;7.70;99.90;;;;;;5017234;28;20034;-90
2022/02/18 08:18:22;;;;;;;29.55;7.15;;;7.70;99.90;;;;;;5012551;28;20042;-90
2022/02/18 08:20:49;;;;;;;28.20;7.25;;;7.70;99.90;;;;;;5004553;28;20046;-92
2022/02/18 08:23:14;;;;;;;25.95;6.80;;;7.80;99.90;;;;;;5001848;28;20050;-90
2022/02/18 08:25:40;;;;;;;22.33;6.13;;;7.90;99.90;;;;;;5002474;28;20174;-90
2022/02/18 08:28:06;;;;;;;27.77;6.85;;;7.90;99.90;;;;;;5002459;28;20042;-90
2022/02/18 08:30:32;;;;;;;28.27;6.57;;;7.90;99.90;;;;;;5002089;28;20043;-89
2022/02/18 08:32:59;;;;;;;23.95;6.93;;;7.90;99.90;;;;;;5002323;28;20026;-90
2022/02/18 08:35:25;;;;;;;21.08;6.18;;;8.00;99.90;;;;;;4999512;28;20018;-90
2022/02/18 08:37:51;;;;;;;26.42;7.10;;;8.00;99.90;;;;;;4999131;28;20064;-90
2022/02/18 08:40:18;;;;;;;27.48;6.40;;;8.00;99.90;;;;;;5000238;28;20059;-91
2022/02/18 08:42:43;;;;;;;24.02;6.68;;;8.10;99.90;;;;;;4999783;28;20125;-92
2022/02/18 08:45:09;;;;;;;24.40;6.68;;;8.10;99.90;;;;;;4998414;28;20065;-92
2022/02/18 08:47:35;;;;;;;30.40;6.82;;;8.10;99.90;;;;;;4997935;28;20054;-91
2022/02/18 08:50:00;;;;;;;26.75;6.45;;;8.10;99.90;;;;;;5000580;28;20443;-91
2022/02/18 08:52:26;;;;;;;29.25;7.43;;;8.20;99.90;;;;;;4999319;28;20029;-87
2022/02/18 08:54:52;;;;;;;21.23;7.03;;;8.20;99.90;;;;;;5002583;28;20038;-92
2022/02/18 08:57:17;;;;;;;25.08;7.30;;;8.20;99.90;;;;;;5002283;28;20086;-90
2022/02/18 08:59:44;;;;;;;29.02;7.18;;;8.30;99.90;;;;;;4998777;28;20034;-93
2022/02/18 09:02:11;;;;;;;23.25;7.32;;;8.30;99.90;;;;;;4997306;28;20581;-91
2022/02/18 09:04:36;;;;;;;23.58;6.70;;;8.30;99.90;;;;;;4996509;28;20060;-89
2022/02/18 09:07:02;;;;;;;23.35;6.35;;;8.40;99.90;;;;;;4995070;28;20561;-88
2022/02/18 09:09:28;;;;;;;28.02;6.85;;;8.40;99.90;;;;;;4995799;28;20030;-89
2022/02/18 09:11:53;;;;;;;24.05;7.10;;;8.40;99.90;;;;;;4995197;28;20447;-93
2022/02/18 09:14:19;;;;;;;26.15;7.38;;;8.50;99.90;;;;;;4996655;28;20420;-92
2022/02/18 09:16:45;;;;;;;19.55;7.03;;;8.50;99.90;;;;;;4996224;28;20442;-91
2022/02/18 09:19:11;;;;;;;19.85;7.15;;;8.60;99.90;;;;;;4997179;28;20026;-91
2022/02/18 09:21:39;;;;;;;15.25;6.70;;;8.70;99.90;;;;;;4995963;28;20038;-90
2022/02/18 09:24:05;;;;;;;20.25;6.57;;;8.80;99.90;;;;;;4995608;28;20038;-90
2022/02/18 09:26:31;;;;;;;16.02;6.78;;;8.90;99.90;;;;;;4996211;28;20118;-90
2022/02/18 09:28:57;;;;;;;19.55;7.13;;;8.90;99.90;;;;;;4995985;28;20053;-90
2022/02/18 09:31:23;;;;;;;11.30;6.38;;;9.00;99.90;;;;;;5009834;28;20065;-90
2022/02/18 09:33:50;;;;;;;19.45;7.40;;;9.00;99.90;;;;;;5009128;28;20022;-89
2022/02/18 09:36:16;;;;;;;13.85;6.85;;;9.10;99.90;;;;;;5015106;28;20054;-90
2022/02/18 09:38:42;;;;;;;13.73;5.88;;;9.10;99.90;;;;;;5003251;28;20073;-90
2022/02/18 09:41:08;;;;;;;12.27;6.07;;;9.20;99.90;;;;;;4996453;28;20077;-89
2022/02/18 09:43:36;;;;;;;15.95;6.53;;;9.20;99.90;;;;;;4997034;28;20034;-90
2022/02/18 09:46:03;;;;;;;13.25;5.75;;;9.30;99.90;;;;;;4997857;28;20094;-91
2022/02/18 09:48:28;;;;;;;10.45;4.80;;;9.30;99.90;;;;;;4997964;28;20094;-93
2022/02/18 09:50:56;;;;;;;13.30;6.40;;;9.30;99.90;;;;;;4997448;28;20041;-94
2022/02/18 09:53:22;;;;;;;11.90;6.15;;;9.30;99.90;;;;;;4996729;28;20026;-92
2022/02/18 09:55:48;;;;;;;11.95;6.13;;;9.40;99.90;;;;;;4998129;28;20031;-95
2022/02/18 09:58:18;;;;;;;15.40;6.65;;;9.40;99.90;;;;;;4996251;28;20026;-92
2022/02/18 10:00:43;;;;;;;8.82;5.50;;;9.50;99.90;;;;;;4996277;28;20042;-93
2022/02/18 10:03:09;;;;;;;7.70;5.28;;;9.50;99.90;;;;;;4995921;28;20030;-92
2022/02/18 10:05:35;;;;;;;10.07;5.82;;;9.50;99.90;;;;;;4996531;28;20150;-94
2022/02/18 10:08:22;;;;;;;11.15;4.90;;;9.50;99.90;;;;;;4998384;28;20154;-92
2022/02/18 10:10:58;;;;;;;8.45;4.40;;;9.60;99.90;;;;;;4997292;28;20022;-94
2022/02/18 10:13:29;;;;;;;8.90;4.82;;;9.70;99.90;;;;;;4996359;28;20046;-92
2022/02/18 10:15:56;;;;;;;8.88;4.53;;;9.70;99.90;;;;;;4996902;28;20029;-94
2022/02/18 10:18:26;;;;;;;7.93;4.35;;;9.70;99.90;;;;;;4996366;28;20034;-93
2022/02/18 10:20:53;;;;;;;6.40;3.75;;;9.80;99.90;;;;;;5011164;28;20046;-93
2022/02/18 10:23:20;;;;;;;7.80;4.10;;;9.80;99.90;;;;;;4995044;28;20151;-93
2022/02/18 10:25:47;;;;;;;7.60;3.97;;;9.90;99.90;;;;;;4996382;28;20227;-92
2022/02/18 10:28:14;;;;;;;7.90;3.42;;;10.00;99.90;;;;;;4996856;28;20065;-94
2022/02/18 10:30:42;;;;;;;9.20;3.55;;;10.00;99.90;;;;;;4997376;28;20023;-92
2022/02/18 10:33:20;;;;;;;5.57;3.67;;;10.00;99.90;;;;;;5005821;28;20034;-91
2022/02/18 10:35:49;;;;;;;5.55;3.70;;;10.10;99.90;;;;;;4996700;28;20492;-91
2022/02/18 10:38:16;;;;;;;7.05;3.33;;;10.10;99.90;;;;;;4996374;28;20078;-92
2022/02/18 10:40:49;;;;;;;5.68;3.50;;;10.20;99.90;;;;;;4996624;28;20038;-92
2022/02/18 10:43:16;;;;;;;;;;;10.20;99.90;;;;;;4996513;28;20043;-93
2022/02/18 10:46:01;;;;;;;5.53;3.00;;;10.20;99.90;;;;;;5005990;28;20360;-92
2022/02/18 10:48:45;;;;;;;6.80;3.22;;;10.30;99.90;;;;;;4996498;28;20492;-92
2022/02/18 10:51:14;;;;;;;4.00;2.75;;;10.30;99.90;;;;;;4996803;28;20035;-92
2022/02/18 10:53:43;;;;;;;5.78;2.97;;;10.30;99.90;;;;;;4997459;28;20085;-92
2022/02/18 10:56:11;;;;;;;5.05;2.47;;;10.40;99.90;;;;;;4997014;28;20031;-91
2022/02/18 10:58:41;;;;;;;5.35;2.60;;;10.40;99.90;;;;;;4997957;28;20035;-91
2022/02/18 11:01:12;;;;;;;5.30;2.70;;;10.50;99.90;;;;;;4996929;28;20038;-92
2022/02/18 11:03:49;;;;;;;4.45;2.63;;;10.50;99.90;;;;;;5001213;28;20026;-91
2022/02/18 11:06:21;;;;;;;5.07;2.38;;;10.50;99.90;;;;;;5020887;28;20042;-91
2022/02/18 11:09:00;;;;;;;5.15;3.10;;;10.50;99.90;;;;;;5010160;28;20042;-92
2022/02/18 11:11:34;;;;;;;6.78;2.50;;;10.60;99.90;;;;;;5027168;28;20037;-91
2022/02/18 11:14:02;;;;;;;4.93;2.38;;;10.60;99.90;;;;;;5015460;28;20046;-92
2022/02/18 11:16:30;;;;;;;4.03;2.40;;;10.60;99.90;;;;;;5012745;28;20042;-92
2022/02/18 11:18:57;;;;;;;3.70;2.20;;;10.60;99.90;;;;;;5009243;28;20125;-92
2022/02/18 11:21:27;;;;;;;3.20;2.10;;;10.60;99.90;;;;;;5015359;28;20062;-91
2022/02/18 11:23:56;;;;;;;4.57;2.40;;;10.70;99.90;;;;;;5013977;28;20119;-93
2022/02/18 11:26:24;;;;;;;5.50;1.77;;;10.70;99.90;;;;;;5033144;28;20019;-93
2022/02/18 11:28:54;;;;;;;4.93;1.70;;;10.80;99.90;;;;;;5016445;28;20033;-93
2022/02/18 11:31:24;;;;;;;3.55;1.50;;;10.80;99.90;;;;;;5012564;28;20030;-91
2022/02/18 11:34:21;;;;;;;2.65;1.60;;;10.90;99.90;;;;;;5019027;28;20022;-91
2022/02/18 11:37:07;;;;;;;2.97;1.27;;;10.90;99.90;;;;;;5012264;28;20050;-90
2022/02/18 11:39:48;;;;;;;2.80;1.63;;;11.00;99.90;;;;;;5010750;28;20038;-91
2022/02/18 11:42:36;;;;;;;2.47;1.40;;;11.00;99.90;;;;;;4997580;28;20050;-90
2022/02/18 11:45:15;;;;;;;3.28;1.75;;;11.00;99.90;;;;;;4996405;28;20027;-93
2022/02/18 11:47:40;;;;;;;2.60;1.17;;;11.10;99.90;;;;;;4998318;28;20349;-92
2022/02/18 11:50:13;;;;;;;2.20;1.20;;;11.10;99.90;;;;;;4999856;28;20026;-93
2022/02/18 11:52:51;;;;;;;1.63;1.08;;;11.20;99.90;;;;;;5009689;28;20432;-92
2022/02/18 11:55:37;;;;;;;2.30;1.20;;;11.20;99.90;;;;;;4995539;28;20046;-90
2022/02/18 11:58:12;;;;;;;2.00;1.00;;;11.30;99.90;;;;;;4995813;28;20041;-90
2022/02/18 12:00:44;;;;;;;1.77;1.02;;;11.30;99.90;;;;;;5015339;28;20026;-89
2022/02/18 12:03:15;;;;;;;1.30;0.88;;;11.40;99.90;;;;;;5006535;28;20124;-89
2022/02/18 12:06:08;;;;;;;1.40;0.98;;;11.40;99.90;;;;;;5005646;28;20448;-91
2022/02/18 12:08:37;;;;;;;1.60;0.95;;;11.50;99.90;;;;;;4995345;28;20396;-88
2022/02/18 12:11:14;;;;;;;3.83;0.90;;;11.50;99.90;;;;;;4984340;28;20038;-90
2022/02/18 12:13:54;;;;;;;1.48;0.98;;;11.60;99.90;;;;;;4997180;28;20034;-89
2022/02/18 12:16:22;;;;;;;3.50;1.20;;;11.60;99.90;;;;;;5000883;28;20052;-90
2022/02/18 12:19:04;;;;;;;2.20;1.30;;;11.60;99.90;;;;;;4976253;28;20046;-89
2022/02/18 12:21:31;;;;;;;5.00;1.43;;;11.60;99.90;;;;;;5011468;28;20049;-89
2022/02/18 12:23:57;;;;;;;1.92;1.10;;;11.60;99.90;;;;;;5010497;28;20038;-88
2022/02/18 12:26:27;;;;;;;1.88;1.10;;;11.70;99.90;;;;;;5008140;28;20041;-88
2022/02/18 12:29:15;;;;;;;1.77;1.10;;;11.70;99.90;;;;;;5000456;28;20027;-90
2022/02/18 12:31:54;;;;;;;2.65;1.10;;;11.70;99.90;;;;;;4999992;28;20564;-89
2022/02/18 12:34:31;;;;;;;2.25;1.25;;;11.80;99.90;;;;;;4998383;28;20038;-89
2022/02/18 12:36:57;;;;;;;1.67;1.00;;;11.80;99.90;;;;;;5003319;28;20129;-90
2022/02/18 12:39:40;;;;;;;2.33;0.95;;;11.80;99.90;;;;;;5000459;28;20030;-90
2022/02/18 12:42:13;;;;;;;1.55;1.00;;;11.80;99.90;;;;;;5001286;28;20050;-90
2022/02/18 12:44:45;;;;;;;;;;;11.80;99.90;;;;;;4985455;28;20026;-91
2022/02/18 12:47:11;;;;;;;2.33;1.20;;;11.80;99.90;;;;;;4999081;28;19955;-90
2022/02/18 12:49:41;;;;;;;2.50;1.30;;;11.80;99.90;;;;;;4994638;28;20062;-90
2022/02/18 12:52:09;;;;;;;2.65;1.38;;;11.80;99.90;;;;;;4996665;28;20042;-90
2022/02/18 12:54:55;;;;;;;2.25;1.20;;;11.70;99.90;;;;;;4996206;28;20019;-91
2022/02/18 12:57:32;;;;;;;3.80;1.60;;;11.60;99.90;;;;;;4996326;28;20046;-89
2022/02/18 12:59:58;;;;;;;2.58;1.45;;;11.50;99.90;;;;;;4996899;28;20548;-92
2022/02/18 13:02:46;;;;;;;3.75;1.58;;;11.40;99.90;;;;;;4994635;28;20481;-92
2022/02/18 13:05:13;;;;;;;4.03;1.55;;;11.30;99.90;;;;;;4992581;28;20042;-90
2022/02/18 13:07:42;;;;;;;2.60;1.67;;;11.20;99.90;;;;;;4997633;28;20046;-90
2022/02/18 13:10:12;;;;;;;2.30;1.52;;;11.20;99.90;;;;;;4995308;28;20035;-92
2022/02/18 13:12:43;;;;;;;3.88;1.40;;;11.10;99.90;;;;;;4996234;28;20610;-92
2022/02/18 13:15:13;;;;;;;7.28;1.38;;;11.10;99.90;;;;;;4982411;28;20197;-93
2022/02/18 13:17:47;;;;;;;3.70;0.90;;;10.80;99.90;;;;;;4993687;28;20046;-94
2022/02/18 13:20:29;;;;;;;3.53;0.75;;;10.70;99.90;;;;;;4997851;28;20403;-91
2022/02/18 13:23:00;;;;;;;3.08;0.60;;;10.50;99.90;;;;;;4994614;28;20053;-93
2022/02/18 13:25:50;;;;;;;2.80;0.77;;;10.30;99.90;;;;;;4996562;28;20133;-91
2022/02/18 13:28:24;;;;;;;5.63;1.02;;;10.10;99.90;;;;;;4999170;28;20031;-92
2022/02/18 13:31:02;;;;;;;7.60;1.20;;;10.00;99.90;;;;;;4996423;28;20026;-91
2022/02/18 13:33:33;;;;;;;5.18;1.00;;;9.90;99.90;;;;;;4997452;28;20046;-93
2022/02/18 13:36:10;;;;;;;7.80;1.55;;;9.70;99.90;;;;;;5000471;28;20031;-93
2022/02/18 13:38:41;;;;;;;13.27;1.67;;;9.50;99.90;;;;;;4998650;28;20037;-93
2022/02/18 13:41:16;;;;;;;9.38;1.75;;;9.30;99.90;;;;;;5003477;28;20037;-91
2022/02/18 13:43:48;;;;;;;5.85;1.10;;;9.20;99.90;;;;;;5005006;28;20034;-91
2022/02/18 13:46:28;;;;;;;6.38;1.25;;;9.10;99.90;;;;;;5009467;28;20428;-90
2022/02/18 13:48:54;;;;;;;8.90;1.63;;;9.00;99.90;;;;;;5026061;28;20347;-91
2022/02/18 13:51:27;;;;;;;6.10;1.52;;;9.00;99.90;;;;;;5012814;28;20108;-90
2022/02/18 13:53:53;;;;;;;7.70;1.40;;;9.00;99.90;;;;;;5006145;28;20026;-93
2022/02/18 13:56:25;;;;;;;8.32;1.83;;;9.00;99.90;;;;;;5010563;28;20042;-91
2022/02/18 13:58:51;;;;;;;9.80;1.60;;;9.00;99.90;;;;;;5002034;28;20041;-93
2022/02/18 14:01:19;;;;;;;6.25;1.85;;;9.00;99.90;;;;;;5004627;28;20038;-92
2022/02/18 14:03:58;;;;;;;8.90;1.58;;;9.00;99.90;;;;;;5003013;28;20101;-95
2022/02/18 14:06:32;;;;;;;11.35;1.30;;;9.10;99.90;;;;;;5003580;28;20061;-93
2022/02/18 14:08:58;;;;;;;;;;;9.10;99.90;;;;;;5003422;28;20030;-91
2022/02/18 14:11:24;;;;;;;10.20;1.95;;;9.00;99.90;;;;;;5003006;28;19960;-91
2022/02/18 14:13:52;;;;;;;7.65;1.27;;;9.10;99.90;;;;;;5002889;28;20034;-90
2022/02/18 14:16:18;;;;;;;10.02;1.73;;;9.20;99.90;;;;;;5000917;28;20049;-90
2022/02/18 14:19:01;;;;;;;9.10;1.65;;;9.20;99.90;;;;;;5002138;28;20076;-92
2022/02/18 14:21:38;;;;;;;9.93;1.90;;;9.30;99.90;;;;;;5003481;28;20046;-94
2022/02/18 14:24:04;;;;;;;12.18;2.13;;;9.60;99.90;;;;;;5000611;28;20060;-91
2022/02/18 14:26:46;;;;;;;13.30;2.45;;;9.70;99.90;;;;;;5006581;28;20492;-92
2022/02/18 14:29:44;;;;;;;;;;;;;;;;;;;;;
2022/02/18 14:32:22;;;;;;;15.57;2.30;;;10.10;99.90;;;;;;5019915;28;20144;-94
2022/02/18 14:35:00;;;;;;;17.00;2.28;;;10.20;99.90;;;;;;4982727;28;20026;-93
2022/02/18 14:37:27;;;;;;;10.77;2.67;;;10.50;99.90;;;;;;4999667;28;20062;-91
2022/02/18 14:39:55;;;;;;;12.40;2.90;;;10.60;99.90;;;;;;5003601;28;20470;-95
2022/02/18 14:42:37;;;;;;;14.45;2.25;;;10.60;99.90;;;;;;5002204;28;20115;-93
2022/02/18 14:45:23;;;;;;;16.38;2.67;;;10.60;99.90;;;;;;4993342;28;20042;-95
2022/02/18 14:47:50;;;;;;;14.13;3.50;;;10.50;99.90;;;;;;5001908;28;20038;-90
2022/02/18 14:50:17;;;;;;;14.32;3.47;;;10.50;99.90;;;;;;5025133;28;20057;-93
2022/02/18 14:52:42;;;;;;;15.98;3.20;;;10.50;99.90;;;;;;5005805;28;20094;-92
2022/02/18 14:55:11;;;;;;;16.10;3.22;;;10.40;99.90;;;;;;5003440;28;20112;-93
2022/02/18 14:57:43;;;;;;;11.57;3.30;;;10.40;99.90;;;;;;5002412;28;20044;-91
2022/02/18 15:00:20;;;;;;;14.77;2.95;;;10.40;99.90;;;;;;5004825;28;20034;-92
2022/02/18 15:02:48;;;;;;;11.93;2.25;;;10.40;99.90;;;;;;5005356;28;20077;-91
2022/02/18 15:05:15;;;;;;;17.77;2.90;;;10.40;99.90;;;;;;5006986;28;20081;-91
2022/02/18 15:07:41;;;;;;;13.15;2.45;;;10.40;99.90;;;;;;5004619;28;20037;-92
2022/02/18 15:10:09;;;;;;;14.13;2.38;;;10.50;99.90;;;;;;5007298;28;20033;-91
2022/02/18 15:12:35;;;;;;;15.52;3.00;;;10.50;99.90;;;;;;5007955;28;20034;-91
2022/02/18 15:15:05;;;;;;;19.23;3.30;;;10.50;99.90;;;;;;4988971;28;20094;-90
2022/02/18 15:17:42;;;;;;;11.38;3.10;;;10.50;99.90;;;;;;5004529;28;20491;-92
2022/02/18 15:20:14;;;;;;;11.98;2.70;;;10.60;99.90;;;;;;5005070;28;20089;-92
2022/02/18 15:22:43;;;;;;;15.07;3.42;;;10.60;99.90;;;;;;5025090;28;20061;-92
2022/02/18 15:25:08;;;;;;;14.57;2.83;;;10.70;99.90;;;;;;4999726;28;20033;-90
2022/02/18 15:27:37;;;;;;;13.10;3.47;;;10.70;99.90;;;;;;5018739;28;20038;-90
2022/02/18 15:35:35;;;;;;;20.50;3.95;;;10.70;99.90;;;;;;5018985;28;20141;-88
2022/02/18 15:38:01;;;;;;;15.07;3.28;;;10.80;99.90;;;;;;5015758;28;20098;-88
2022/02/18 15:43:14;;;;;;;12.82;2.78;;;10.70;99.90;;;;;;5016280;28;20081;-88
2022/02/18 15:45:41;;;;;;;17.13;4.28;;;10.80;99.90;;;;;;4999915;28;20034;-87
2022/02/18 15:48:08;;;;;;;16.65;3.92;;;10.80;99.90;;;;;;4994655;28;20480;-87
2022/02/18 15:50:34;;;;;;;15.57;3.40;;;10.90;99.90;;;;;;4994253;28;20499;-88
2022/02/18 15:53:00;;;;;;;22.48;3.58;;;10.80;99.90;;;;;;5011126;28;20427;-88
2022/02/18 15:55:28;;;;;;;19.55;4.38;;;10.70;99.90;;;;;;4993460;28;20297;-91
2022/02/18 15:57:54;;;;;;;18.80;3.28;;;10.70;99.90;;;;;;5012887;28;20463;-90
2022/02/18 16:00:23;;;;;;;20.10;4.18;;;10.70;99.90;;;;;;5012704;28;20084;-92
2022/02/18 16:02:49;;;;;;;15.10;3.35;;;10.70;99.90;;;;;;4994498;28;20061;-91
2022/02/18 16:05:18;;;;;;;17.80;3.53;;;10.60;99.90;;;;;;4995861;28;20034;-92
2022/02/18 16:07:45;;;;;;;19.83;4.13;;;10.50;99.90;;;;;;4995786;28;20101;-93
2022/02/18 16:10:11;;;;;;;20.10;4.55;;;10.50;99.90;;;;;;4995308;28;20025;-90
2022/02/18 16:12:41;;;;;;;24.92;4.10;;;10.50;99.90;;;;;;4996108;28;20034;-91
2022/02/18 16:15:08;;;;;;;17.90;3.63;;;10.50;99.90;;;;;;4997524;28;20508;-86
2022/02/18 16:17:36;;;;;;;21.15;4.70;;;10.10;99.90;;;;;;4997672;28;20045;-93
2022/02/18 16:20:03;;;;;;;20.15;4.53;;;10.00;99.90;;;;;;4999699;28;20053;-89
2022/02/18 16:22:30;;;;;;;22.63;4.60;;;9.70;99.90;;;;;;5006686;28;20053;-89
2022/02/18 16:24:58;;;;;;;25.08;3.92;;;9.50;99.90;;;;;;5014605;28;20064;-89
2022/02/18 16:27:30;;;;;;;23.23;4.15;;;9.40;99.90;;;;;;5018410;28;20085;-86
2022/02/18 16:29:58;;;;;;;22.88;3.88;;;9.30;99.90;;;;;;5000356;28;20038;-91
2022/02/18 16:32:24;;;;;;;17.55;4.22;;;9.40;99.90;;;;;;5012066;28;20042;-90
2022/02/18 16:34:52;;;;;;;22.23;3.97;;;9.50;99.90;;;;;;5010090;28;20527;-91
2022/02/18 16:37:26;;;;;;;26.88;4.72;;;9.60;99.90;;;;;;4998526;28;20054;-93
2022/02/18 16:39:54;;;;;;;17.52;3.67;;;9.40;99.90;;;;;;5003679;28;20074;-92
2022/02/18 16:42:24;;;;;;;16.58;2.60;;;9.30;99.90;;;;;;4996891;28;20042;-92
2022/02/18 16:44:49;;;;;;;19.65;3.08;;;9.40;99.90;;;;;;5004445;28;20094;-89
2022/02/18 16:47:18;;;;;;;19.17;3.83;;;9.50;99.90;;;;;;5004942;28;20509;-90
2022/02/18 16:49:45;;;;;;;17.63;2.90;;;9.50;99.90;;;;;;5004584;28;20034;-87
2022/02/18 16:52:11;;;;;;;16.30;2.90;;;9.40;99.90;;;;;;5003407;28;20034;-90
2022/02/18 16:54:38;;;;;;;16.55;3.13;;;9.40;99.90;;;;;;5003198;28;20085;-86
2022/02/18 16:57:05;;;;;;;15.38;3.13;;;9.40;99.90;;;;;;5004125;28;20054;-86
2022/02/18 16:59:33;;;;;;;10.40;2.38;;;9.40;99.90;;;;;;5002270;28;20042;-88
2022/02/18 17:01:59;;;;;;;12.70;2.83;;;9.50;99.90;;;;;;5012868;28;20042;-87
2022/02/18 17:04:25;;;;;;;16.50;2.83;;;9.50;99.90;;;;;;4996306;28;20040;-92
2022/02/18 17:06:51;;;;;;;18.40;3.72;;;9.40;99.90;;;;;;4997386;28;20038;-89
2022/02/18 17:09:17;;;;;;;21.10;4.53;;;9.40;99.90;;;;;;4994766;28;20184;-91
2022/02/18 17:11:43;;;;;;;13.00;2.85;;;9.40;99.90;;;;;;4994295;28;20053;-90
2022/02/18 17:14:08;;;;;;;15.88;3.35;;;9.40;99.90;;;;;;4994989;28;20404;-89
2022/02/18 17:16:37;;;;;;;21.25;2.72;;;9.30;99.90;;;;;;4994617;28;20092;-90
2022/02/18 17:19:04;;;;;;;14.32;3.53;;;9.30;99.90;;;;;;4995929;28;20042;-87
2022/02/18 17:21:30;;;;;;;18.00;3.42;;;9.20;99.90;;;;;;4996048;28;20047;-87
2022/02/18 17:23:56;;;;;;;15.80;3.95;;;9.20;99.90;;;;;;4995896;28;20045;-89
2022/02/18 17:26:22;;;;;;;23.33;4.50;;;9.20;99.90;;;;;;4994399;28;20031;-85
2022/02/18 17:28:48;;;;;;;15.48;4.00;;;8.90;99.90;;;;;;4993807;28;20480;-86
2022/02/18 17:31:18;;;;;;;18.48;4.50;;;8.70;99.90;;;;;;4994326;28;20107;-87
2022/02/18 17:33:45;;;;;;;15.35;3.00;;;8.40;99.90;;;;;;4996642;28;20089;-87
2022/02/18 17:36:11;;;;;;;15.52;2.70;;;8.30;99.90;;;;;;4996435;28;20072;-87
2022/02/18 17:38:40;;;;;;;14.20;2.40;;;8.40;99.90;;;;;;4996085;28;20052;-87
2022/02/18 17:41:07;;;;;;;10.25;1.95;;;8.30;99.90;;;;;;5000368;28;20085;-89
2022/02/18 17:43:36;;;;;;;20.52;2.95;;;8.30;99.90;;;;;;5018875;28;20090;-87
2022/02/18 17:46:02;;;;;;;18.10;2.88;;;8.00;99.90;;;;;;4999178;28;20118;-86
2022/02/18 17:48:37;;;;;;;15.13;2.90;;;7.60;99.90;;;;;;5021087;28;20034;-88
2022/02/18 17:51:03;;;;;;;27.58;5.72;;;7.30;99.90;;;;;;5025865;28;20045;-88
2022/02/18 17:53:34;;;;;;;23.05;3.22;;;7.20;99.90;;;;;;5007945;28;20053;-90
2022/02/18 17:56:00;;;;;;;13.43;2.42;;;7.20;99.90;;;;;;5006753;28;20721;-90
2022/02/18 17:58:25;;;;;;;13.30;2.10;;;7.20;99.90;;;;;;5000109;28;20036;-88
2022/02/18 18:00:53;;;;;;;13.60;2.38;;;7.30;99.90;;;;;;5003374;28;20079;-88
2022/02/18 18:03:21;;;;;;;9.70;2.03;;;7.10;99.90;;;;;;5000333;28;20179;-90
2022/02/18 18:05:46;;;;;;;10.77;1.70;;;6.90;99.90;;;;;;4998102;28;20038;-91
2022/02/18 18:08:12;;;;;;;9.73;1.83;;;6.70;99.90;;;;;;4998564;28;20044;-85
2022/02/18 18:10:38;;;;;;;14.18;2.05;;;6.80;99.90;;;;;;5015250;28;20049;-88
2022/02/18 18:13:03;;;;;;;13.25;1.52;;;6.90;99.90;;;;;;5015305;28;20554;-85
2022/02/18 18:15:29;;;;;;;10.70;1.80;;;7.00;99.90;;;;;;4997217;28;20040;-88
2022/02/18 18:17:59;;;;;;;10.70;1.60;;;7.20;99.90;;;;;;4994446;28;20041;-89
2022/02/18 18:20:26;;;;;;;15.68;2.65;;;7.50;99.90;;;;;;4999151;28;20033;-90
2022/02/18 18:22:54;;;;;;;11.63;1.88;;;7.60;99.90;;;;;;4998779;28;20056;-88
2022/02/18 18:25:20;;;;;;;15.15;2.17;;;7.80;99.90;;;;;;4998044;28;20034;-91
2022/02/18 18:27:46;;;;;;;14.73;2.72;;;7.80;99.90;;;;;;4998663;28;20042;-89
2022/02/18 18:30:12;;;;;;;13.02;1.80;;;7.90;99.90;;;;;;4998244;28;20103;-88
2022/02/18 18:32:40;;;;;;;9.48;1.40;;;7.90;99.90;;;;;;4996791;28;20029;-87
2022/02/18 18:35:06;;;;;;;12.13;2.05;;;8.00;99.90;;;;;;4996795;28;20042;-86
2022/02/18 18:37:32;;;;;;;11.57;1.52;;;8.10;99.90;;;;;;5012717;28;20121;-88
2022/02/18 18:39:58;;;;;;;10.13;2.17;;;8.20;99.90;;;;;;4995331;28;20567;-86
2022/02/18 18:42:23;;;;;;;13.10;1.98;;;8.20;99.90;;;;;;5012688;28;20045;-89
2022/02/18 18:44:49;;;;;;;13.23;1.48;;;8.10;99.90;;;;;;5013060;28;20029;-87
2022/02/18 18:47:15;;;;;;;10.63;1.83;;;8.00;99.90;;;;;;5012899;28;20050;-88
2022/02/18 18:49:43;;;;;;;16.17;2.30;;;7.90;99.90;;;;;;4995531;28;20041;-88
2022/02/18 18:52:09;;;;;;;11.35;1.70;;;7.80;99.90;;;;;;4996845;28;20484;-87
2022/02/18 18:54:35;;;;;;;11.23;2.42;;;7.70;99.90;;;;;;4996205;28;20032;-87
2022/02/18 18:57:01;;;;;;;11.23;1.85;;;7.70;99.90;;;;;;4995639;28;20034;-88
2022/02/18 18:59:26;;;;;;;8.75;1.40;;;7.70;99.90;;;;;;4995033;28;20491;-88
2022/02/18 19:01:52;;;;;;;10.30;1.90;;;7.70;99.90;;;;;;4995420;28;20038;-87
2022/02/18 19:04:20;;;;;;;13.07;1.80;;;7.70;99.90;;;;;;5014244;28;20038;-87
2022/02/18 19:06:46;;;;;;;14.30;2.25;;;7.70;99.90;;;;;;5012343;28;20041;-86